Time;durP1;ratioP1;P1;durP2;ratioP2;P2;SDS_P1;SDS_P2;PMS_P1;PMS_P2;Temp;Humidity;BMP_temperature;BMP_pressure;BME280_temperature;BME280_humidity;BME280_pressure;Samples;Min_cycle;Max_cycle;Signal;HPM_P1;HPM_P2
2023/07/15 00:00:36;;;;;;;7.17;2.60;;;;;;;;;;5050737;28;20048;-64
2023/07/15 00:03:02;;;;;;;3.10;2.50;;;;;;;;;;5048557;28;20114;-63
2023/07/15 00:05:30;;;;;;;4.05;2.45;;;;;;;;;;5050576;28;20013;-64
2023/07/15 00:07:56;;;;;;;2.90;2.50;;;;;;;;;;5048760;28;20036;-64
2023/07/15 00:10:21;;;;;;;4.33;2.63;;;;;;;;;;5067219;28;20028;-64
2023/07/15 00:12:46;;;;;;;4.05;2.35;;;;;;;;;;5068900;28;20447;-64
2023/07/15 00:15:12;;;;;;;4.20;2.10;;;;;;;;;;5070320;28;20021;-64
2023/07/15 00:17:38;;;;;;;7.88;2.90;;;;;;;;;;5068773;28;20037;-65
2023/07/15 00:20:07;;;;;;;8.90;2.65;;;;;;;;;;5059781;28;20032;-64
2023/07/15 00:22:32;;;;;;;5.70;2.88;;;;;;;;;;5049046;28;20059;-65
2023/07/15 00:24:58;;;;;;;4.17;2.43;;;;;;;;;;5049612;28;20476;-65
2023/07/15 00:27:24;;;;;;;5.57;2.22;;;;;;;;;;5049007;28;20037;-64
2023/07/15 00:29:50;;;;;;;4.55;2.22;;;;;;;;;;5048773;28;20438;-65
2023/07/15 00:32:16;;;;;;;3.87;3.17;;;;;;;;;;5048398;28;20033;-65
2023/07/15 00:34:41;;;;;;;3.35;1.90;;;;;;;;;;5051335;28;20387;-63
2023/07/15 00:37:06;;;;;;;5.73;2.90;;;;;;;;;;5048777;28;20115;-64
2023/07/15 00:39:32;;;;;;;2.33;2.15;;;;;;;;;;5048475;28;20103;-65
2023/07/15 00:41:59;;;;;;;4.45;3.25;;;;;;;;;;5048507;28;20033;-63
2023/07/15 00:44:24;;;;;;;3.95;2.35;;;;;;;;;;5048572;28;20159;-64
2023/07/15 00:47:04;;;;;;;5.70;2.90;;;;;;;;;;5048758;28;20505;-64
2023/07/15 00:49:30;;;;;;;2.58;2.38;;;;;;;;;;5055419;28;20025;-64
2023/07/15 00:52:05;;;;;;;3.22;2.60;;;;;;;;;;5071421;28;20457;-64
2023/07/15 00:54:32;;;;;;;9.65;2.75;;;;;;;;;;5073199;28;20467;-64
2023/07/15 00:57:00;;;;;;;2.85;2.17;;;;;;;;;;5070606;28;20124;-63
2023/07/15 00:59:25;;;;;;;9.98;3.55;;;;;;;;;;5073576;28;20028;-64
2023/07/15 01:01:53;;;;;;;5.72;2.35;;;;;;;;;;5071673;28;20032;-63
2023/07/15 01:04:18;;;;;;;7.28;2.58;;;;;;;;;;5073094;28;20107;-65
2023/07/15 01:06:45;;;;;;;3.95;2.58;;;;;;;;;;5071831;28;20617;-65
2023/07/15 01:09:10;;;;;;;3.42;2.00;;;;;;;;;;5072939;28;20028;-64
2023/07/15 01:11:35;;;;;;;3.63;2.20;;;;;;;;;;5070352;28;20078;-63
2023/07/15 01:14:01;;;;;;;6.60;3.33;;;;;;;;;;5073280;28;20414;-64
2023/07/15 01:16:28;;;;;;;4.03;2.45;;;;;;;;;;5071635;28;20041;-63
2023/07/15 01:18:53;;;;;;;3.63;3.28;;;;;;;;;;5055181;28;20027;-64
2023/07/15 01:21:19;;;;;;;5.72;2.40;;;;;;;;;;5051616;28;20045;-63
2023/07/15 01:23:44;;;;;;;2.45;2.28;;;;;;;;;;5053285;28;20029;-64
2023/07/15 01:26:10;;;;;;;2.53;2.08;;;;;;;;;;5051117;28;20033;-62
2023/07/15 01:28:36;;;;;;;3.10;2.10;;;;;;;;;;5053403;28;20376;-62
2023/07/15 01:31:02;;;;;;;5.90;3.03;;;;;;;;;;5051259;28;20468;-62
2023/07/15 01:33:27;;;;;;;2.72;2.53;;;;;;;;;;5053894;28;20028;-63
2023/07/15 01:35:52;;;;;;;3.72;2.78;;;;;;;;;;5052792;28;20503;-65
2023/07/15 01:38:18;;;;;;;5.40;2.25;;;;;;;;;;5051166;28;20029;-64
2023/07/15 01:40:43;;;;;;;11.15;3.20;;;;;;;;;;5052748;28;20017;-63
2023/07/15 01:43:09;;;;;;;4.43;2.67;;;;;;;;;;5068790;28;20033;-63
2023/07/15 01:45:35;;;;;;;3.85;2.70;;;;;;;;;;5072769;28;20031;-63
2023/07/15 01:48:00;;;;;;;4.63;2.75;;;;;;;;;;5070443;28;20032;-63
2023/07/15 01:50:25;;;;;;;4.90;2.40;;;;;;;;;;5072297;28;20017;-64
2023/07/15 01:52:51;;;;;;;2.33;1.47;;;;;;;;;;5071317;28;20495;-63
2023/07/15 01:55:16;;;;;;;5.50;2.05;;;;;;;;;;5071947;28;20017;-63
2023/07/15 01:57:41;;;;;;;3.67;2.05;;;;;;;;;;5070782;28;20033;-63
2023/07/15 02:00:07;;;;;;;6.03;2.57;;;;;;;;;;5072382;28;20023;-61
2023/07/15 02:02:33;;;;;;;9.80;2.95;;;;;;;;;;5069892;28;20569;-65
2023/07/15 02:04:58;;;;;;;5.70;2.97;;;;;;;;;;5072011;28;20032;-64
2023/07/15 02:07:23;;;;;;;2.42;1.98;;;;;;;;;;5071056;28;21379;-62
2023/07/15 02:09:48;;;;;;;3.08;2.17;;;;;;;;;;5071777;28;20021;-63
2023/07/15 02:12:13;;;;;;;7.73;2.87;;;;;;;;;;5070305;28;20101;-65
2023/07/15 02:14:38;;;;;;;3.80;2.10;;;;;;;;;;5072310;28;20411;-62
2023/07/15 02:17:04;;;;;;;7.10;2.10;;;;;;;;;;5069776;28;20695;-62
2023/07/15 02:19:30;;;;;;;2.63;1.80;;;;;;;;;;5072036;28;20032;-62
2023/07/15 02:21:56;;;;;;;13.32;2.20;;;;;;;;;;5070537;28;20045;-62
2023/07/15 02:24:21;;;;;;;8.23;3.40;;;;;;;;;;5071394;28;20031;-62
2023/07/15 02:26:46;;;;;;;4.75;2.10;;;;;;;;;;5070274;28;20181;-62
2023/07/15 02:29:13;;;;;;;3.60;2.00;;;;;;;;;;5071586;28;20031;-62
2023/07/15 02:31:38;;;;;;;3.53;2.00;;;;;;;;;;5064623;28;20036;-62
2023/07/15 02:34:04;;;;;;;2.95;2.10;;;;;;;;;;5051633;28;20042;-63
2023/07/15 02:36:29;;;;;;;2.35;2.13;;;;;;;;;;5050148;28;20045;-63
2023/07/15 02:38:54;;;;;;;4.40;1.80;;;;;;;;;;5051393;28;20486;-63
2023/07/15 02:41:19;;;;;;;5.90;2.30;;;;;;;;;;5049767;28;20037;-64
2023/07/15 02:43:45;;;;;;;3.10;2.00;;;;;;;;;;5051685;28;20020;-64
2023/07/15 02:46:10;;;;;;;4.23;2.50;;;;;;;;;;5049645;28;20017;-64
2023/07/15 02:48:35;;;;;;;2.83;2.33;;;;;;;;;;5071216;28;20521;-63
2023/07/15 02:51:00;;;;;;;7.00;4.33;;;;;;;;;;5069876;28;20032;-62
2023/07/15 02:53:26;;;;;;;3.30;2.77;;;;;;;;;;5071136;28;20042;-63
2023/07/15 02:55:51;;;;;;;4.97;2.30;;;;;;;;;;5071334;28;20013;-63
2023/07/15 02:58:19;;;;;;;15.30;3.00;;;;;;;;;;5069683;28;20029;-62
2023/07/15 03:00:44;;;;;;;4.38;2.97;;;;;;;;;;5071054;28;20022;-63
2023/07/15 03:03:10;;;;;;;7.27;3.27;;;;;;;;;;5069599;28;20032;-62
2023/07/15 03:05:36;;;;;;;3.78;2.47;;;;;;;;;;5071304;28;20454;-63
2023/07/15 03:08:01;;;;;;;2.92;2.65;;;;;;;;;;5069049;28;20041;-63
2023/07/15 03:10:26;;;;;;;5.13;2.28;;;;;;;;;;5071021;28;20016;-63
2023/07/15 03:12:51;;;;;;;3.08;2.53;;;;;;;;;;5069473;28;20487;-63
2023/07/15 03:15:17;;;;;;;3.90;2.63;;;;;;;;;;5069974;28;20024;-63
2023/07/15 03:17:42;;;;;;;5.15;2.55;;;;;;;;;;5069506;28;20032;-62
2023/07/15 03:20:19;;;;;;;5.18;3.22;;;;;;;;;;5070925;28;20103;-62
2023/07/15 03:22:44;;;;;;;4.30;2.92;;;;;;;;;;5069178;28;20045;-62
2023/07/15 03:25:09;;;;;;;6.32;2.08;;;;;;;;;;5070654;28;20038;-63
2023/07/15 03:27:35;;;;;;;3.40;1.98;;;;;;;;;;5069315;28;20086;-62
2023/07/15 03:30:00;;;;;;;5.13;3.60;;;;;;;;;;5070275;28;20021;-63
2023/07/15 03:32:25;;;;;;;6.85;2.92;;;;;;;;;;5068845;28;20579;-62
2023/07/15 03:34:50;;;;;;;5.20;3.58;;;;;;;;;;5070506;28;20024;-61
2023/07/15 03:37:15;;;;;;;2.40;2.10;;;;;;;;;;5068657;28;20411;-63
2023/07/15 03:39:40;;;;;;;14.30;3.30;;;;;;;;;;5070934;28;20034;-63
2023/07/15 03:42:06;;;;;;;7.25;2.50;;;;;;;;;;5068949;28;20071;-63
2023/07/15 03:44:31;;;;;;;4.40;2.33;;;;;;;;;;5070369;28;20021;-65
2023/07/15 03:46:57;;;;;;;4.00;2.47;;;;;;;;;;5069046;28;20510;-65
2023/07/15 03:49:22;;;;;;;5.22;3.15;;;;;;;;;;5070192;28;20104;-65
2023/07/15 03:51:47;;;;;;;3.15;2.78;;;;;;;;;;5069213;28;20124;-65
2023/07/15 03:54:12;;;;;;;6.15;2.65;;;;;;;;;;5070138;28;20020;-65
2023/07/15 03:56:38;;;;;;;2.80;2.33;;;;;;;;;;5067773;28;20491;-65
2023/07/15 03:59:04;;;;;;;4.15;2.72;;;;;;;;;;5070531;28;20025;-65
2023/07/15 04:01:30;;;;;;;5.80;2.45;;;;;;;;;;5068812;28;20149;-64
2023/07/15 04:03:55;;;;;;;5.35;3.90;;;;;;;;;;5053059;28;20028;-64
2023/07/15 04:06:20;;;;;;;3.22;2.22;;;;;;;;;;5048840;28;20033;-63
2023/07/15 04:08:45;;;;;;;3.97;3.07;;;;;;;;;;5050213;28;20036;-66
2023/07/15 04:11:11;;;;;;;3.43;2.60;;;;;;;;;;5049054;28;20443;-64
2023/07/15 04:13:37;;;;;;;3.42;2.40;;;;;;;;;;5050508;28;20423;-64
2023/07/15 04:16:02;;;;;;;5.75;2.38;;;;;;;;;;5045899;28;20132;-64
2023/07/15 04:18:27;;;;;;;5.93;2.13;;;;;;;;;;5050678;28;20075;-65
2023/07/15 04:20:52;;;;;;;4.00;3.30;;;;;;;;;;5050177;28;20071;-64
2023/07/15 04:23:18;;;;;;;3.80;3.40;;;;;;;;;;5048015;28;20030;-65
2023/07/15 04:25:45;;;;;;;2.13;1.92;;;;;;;;;;5051306;28;20066;-65
2023/07/15 04:28:11;;;;;;;5.85;2.63;;;;;;;;;;5051210;28;20399;-65
2023/07/15 04:30:36;;;;;;;6.57;3.03;;;;;;;;;;5062152;28;20024;-65
2023/07/15 04:33:01;;;;;;;2.50;1.80;;;;;;;;;;5071915;28;20036;-65
2023/07/15 04:35:26;;;;;;;3.07;2.43;;;;;;;;;;5054678;28;20048;-63
2023/07/15 04:37:51;;;;;;;6.00;2.60;;;;;;;;;;5059573;28;20450;-63
2023/07/15 04:40:16;;;;;;;3.30;2.97;;;;;;;;;;5070798;28;20052;-63
2023/07/15 04:42:42;;;;;;;8.40;2.63;;;;;;;;;;5040985;28;20053;-63
2023/07/15 04:45:07;;;;;;;4.32;2.95;;;;;;;;;;5033550;28;20025;-63
2023/07/15 04:47:32;;;;;;;2.50;2.05;;;;;;;;;;5068182;28;20041;-63
2023/07/15 04:49:58;;;;;;;8.20;3.10;;;;;;;;;;5071819;28;20495;-63
2023/07/15 04:52:23;;;;;;;17.23;3.53;;;;;;;;;;5069552;28;20170;-63
2023/07/15 04:54:48;;;;;;;6.50;4.35;;;;;;;;;;5073401;28;20391;-63
2023/07/15 04:57:13;;;;;;;3.40;2.60;;;;;;;;;;5070697;28;20038;-63
2023/07/15 04:59:38;;;;;;;19.43;3.90;;;;;;;;;;5067445;28;20036;-64
2023/07/15 05:02:04;;;;;;;5.63;3.17;;;;;;;;;;5070955;28;20470;-63
2023/07/15 05:04:29;;;;;;;3.75;1.92;;;;;;;;;;5072850;28;20365;-63
2023/07/15 05:06:54;;;;;;;9.20;2.80;;;;;;;;;;5065046;28;20068;-62
2023/07/15 05:09:19;;;;;;;9.33;3.70;;;;;;;;;;5048255;28;20041;-63
2023/07/15 05:11:44;;;;;;;3.78;2.35;;;;;;;;;;5049966;28;20281;-62
2023/07/15 05:14:09;;;;;;;5.30;3.13;;;;;;;;;;5063976;28;20021;-62
2023/07/15 05:16:35;;;;;;;8.43;1.95;;;;;;;;;;5051730;28;20041;-62
2023/07/15 05:19:00;;;;;;;6.25;2.22;;;;;;;;;;5052519;28;20048;-63
2023/07/15 05:21:26;;;;;;;6.75;2.10;;;;;;;;;;5050159;28;20389;-62
2023/07/15 05:23:51;;;;;;;9.05;2.38;;;;;;;;;;5053061;28;20032;-63
2023/07/15 05:26:16;;;;;;;9.75;2.08;;;;;;;;;;5050545;28;20025;-64
2023/07/15 05:28:41;;;;;;;10.05;2.65;;;;;;;;;;5060345;28;20046;-63
2023/07/15 05:31:06;;;;;;;3.50;2.53;;;;;;;;;;5070797;28;20031;-63
2023/07/15 05:33:31;;;;;;;5.30;3.07;;;;;;;;;;5072148;28;20040;-63
2023/07/15 05:35:57;;;;;;;5.77;2.40;;;;;;;;;;5070554;28;20492;-63
2023/07/15 05:38:23;;;;;;;3.72;1.95;;;;;;;;;;5070440;28;20102;-63
2023/07/15 05:40:48;;;;;;;6.65;2.35;;;;;;;;;;5071243;28;20051;-62
2023/07/15 05:43:14;;;;;;;4.20;2.77;;;;;;;;;;5069655;28;20498;-61
2023/07/15 05:45:39;;;;;;;4.40;2.88;;;;;;;;;;5071299;28;20016;-62
2023/07/15 05:48:04;;;;;;;6.83;3.37;;;;;;;;;;5070337;28;20040;-60
2023/07/15 05:50:34;;;;;;;3.90;2.13;;;;;;;;;;5071704;28;20478;-60
2023/07/15 05:52:59;;;;;;;4.20;2.60;;;;;;;;;;5069913;28;20025;-60
2023/07/15 05:55:24;;;;;;;9.57;2.97;;;;;;;;;;5071881;28;20020;-60
2023/07/15 05:57:49;;;;;;;3.40;2.27;;;;;;;;;;5054755;28;20459;-60
2023/07/15 06:00:15;;;;;;;3.88;2.13;;;;;;;;;;5051949;28;20020;-60
2023/07/15 06:02:41;;;;;;;4.32;2.58;;;;;;;;;;5050526;28;20040;-60
2023/07/15 06:05:06;;;;;;;6.57;2.50;;;;;;;;;;5058432;28;20091;-60
2023/07/15 06:07:31;;;;;;;11.75;3.10;;;;;;;;;;5069973;28;20486;-60
2023/07/15 06:09:56;;;;;;;7.00;2.63;;;;;;;;;;5071433;28;20091;-60
2023/07/15 06:12:22;;;;;;;5.20;2.75;;;;;;;;;;5070287;28;20048;-60
2023/07/15 06:14:47;;;;;;;4.40;2.27;;;;;;;;;;5071112;28;20382;-60
2023/07/15 06:17:12;;;;;;;7.30;3.33;;;;;;;;;;5061633;28;20036;-61
2023/07/15 06:19:37;;;;;;;2.70;1.90;;;;;;;;;;5042831;28;20456;-60
2023/07/15 06:22:02;;;;;;;5.63;2.67;;;;;;;;;;5038215;28;20037;-60
2023/07/15 06:24:27;;;;;;;4.10;1.77;;;;;;;;;;5060717;28;20035;-60
2023/07/15 06:26:53;;;;;;;5.75;2.17;;;;;;;;;;5070240;28;20546;-60
2023/07/15 06:29:18;;;;;;;6.67;2.20;;;;;;;;;;5070164;28;20384;-61
2023/07/15 06:31:44;;;;;;;4.37;2.67;;;;;;;;;;5069219;28;20123;-60
2023/07/15 06:34:09;;;;;;;3.70;2.58;;;;;;;;;;5070676;28;20443;-62
2023/07/15 06:36:35;;;;;;;3.55;3.22;;;;;;;;;;5068626;28;20531;-61
2023/07/15 06:39:00;;;;;;;2.88;2.53;;;;;;;;;;5070381;28;20480;-62
2023/07/15 06:41:26;;;;;;;3.30;2.37;;;;;;;;;;5068964;28;20123;-61
2023/07/15 06:43:52;;;;;;;5.38;2.42;;;;;;;;;;5070054;28;20541;-61
2023/07/15 06:46:17;;;;;;;5.53;2.60;;;;;;;;;;5068998;28;20016;-61
2023/07/15 06:48:44;;;;;;;3.73;2.40;;;;;;;;;;5070348;28;20436;-61
2023/07/15 06:51:11;;;;;;;4.30;1.95;;;;;;;;;;5068918;28;20419;-62
2023/07/15 06:53:37;;;;;;;4.67;2.83;;;;;;;;;;5068193;28;20809;-62
2023/07/15 06:56:02;;;;;;;6.25;2.00;;;;;;;;;;5065352;28;20434;-61
2023/07/15 06:58:27;;;;;;;2.95;1.90;;;;;;;;;;5070056;28;20151;-62
2023/07/15 07:00:53;;;;;;;5.57;2.90;;;;;;;;;;5070276;28;20051;-62
2023/07/15 07:03:18;;;;;;;1.92;1.80;;;;;;;;;;5069259;28;20035;-62
2023/07/15 07:05:43;;;;;;;4.00;2.67;;;;;;;;;;5070081;28;20019;-62
2023/07/15 07:08:09;;;;;;;4.13;2.28;;;;;;;;;;5066959;28;20706;-62
2023/07/15 07:10:34;;;;;;;5.57;2.20;;;;;;;;;;5071024;28;20043;-62
2023/07/15 07:12:59;;;;;;;6.83;2.37;;;;;;;;;;5060410;28;20458;-62
2023/07/15 07:15:26;;;;;;;4.90;2.17;;;;;;;;;;5059819;28;20443;-62
2023/07/15 07:17:51;;;;;;;2.67;1.88;;;;;;;;;;5068689;28;20032;-61
2023/07/15 07:20:16;;;;;;;9.57;3.47;;;;;;;;;;5069267;28;20023;-61
2023/07/15 07:22:41;;;;;;;3.33;1.93;;;;;;;;;;5067898;28;20071;-61
2023/07/15 07:25:06;;;;;;;2.43;2.23;;;;;;;;;;5069598;28;20063;-61
2023/07/15 07:27:32;;;;;;;4.20;1.60;;;;;;;;;;5068545;28;20041;-61
2023/07/15 07:29:59;;;;;;;6.17;1.70;;;;;;;;;;5070210;28;20020;-61
2023/07/15 07:32:24;;;;;;;2.85;2.22;;;;;;;;;;5069026;28;20450;-61
2023/07/15 07:34:50;;;;;;;6.25;2.67;;;;;;;;;;5069995;28;20582;-60
2023/07/15 07:37:15;;;;;;;5.67;1.93;;;;;;;;;;5056389;28;20566;-61
2023/07/15 07:39:40;;;;;;;4.45;2.15;;;;;;;;;;5048824;28;20033;-61
2023/07/15 07:42:07;;;;;;;4.90;1.55;;;;;;;;;;5057046;28;20040;-61
2023/07/15 07:44:32;;;;;;;3.78;1.83;;;;;;;;;;5070383;28;20024;-62
2023/07/15 07:46:58;;;;;;;2.50;1.73;;;;;;;;;;5068561;28;20406;-62
2023/07/15 07:49:23;;;;;;;11.65;2.70;;;;;;;;;;5070235;28;20016;-62
2023/07/15 07:51:48;;;;;;;4.80;2.67;;;;;;;;;;5068399;28;20563;-62
2023/07/15 07:54:13;;;;;;;11.40;3.60;;;;;;;;;;5070105;28;20028;-61
2023/07/15 07:56:38;;;;;;;2.65;1.73;;;;;;;;;;5067232;28;20398;-62
2023/07/15 07:59:04;;;;;;;3.10;2.50;;;;;;;;;;5069973;28;20025;-62
2023/07/15 08:01:31;;;;;;;4.88;2.40;;;;;;;;;;5072460;28;21017;-62
2023/07/15 08:03:56;;;;;;;4.22;2.65;;;;;;;;;;5073277;28;20020;-61
2023/07/15 08:06:21;;;;;;;5.25;2.22;;;;;;;;;;5072322;28;20055;-61
2023/07/15 08:08:47;;;;;;;3.80;2.30;;;;;;;;;;5073929;28;20471;-62
2023/07/15 08:11:12;;;;;;;7.10;1.70;;;;;;;;;;5071806;28;20103;-61
2023/07/15 08:13:37;;;;;;;3.43;2.40;;;;;;;;;;5073954;28;20154;-62
2023/07/15 08:16:02;;;;;;;5.03;2.08;;;;;;;;;;5072268;28;20528;-60
2023/07/15 08:18:27;;;;;;;2.47;2.07;;;;;;;;;;5073340;28;20016;-62
2023/07/15 08:20:52;;;;;;;3.30;1.73;;;;;;;;;;5073098;28;20507;-61
2023/07/15 08:23:20;;;;;;;4.53;1.43;;;;;;;;;;5072389;28;20485;-62
2023/07/15 08:25:45;;;;;;;20.47;3.47;;;;;;;;;;5073671;28;20017;-61
2023/07/15 08:28:10;;;;;;;2.88;2.05;;;;;;;;;;5072129;28;20029;-61
2023/07/15 08:30:36;;;;;;;4.57;2.23;;;;;;;;;;5073800;28;20016;-61
2023/07/15 08:33:04;;;;;;;7.60;1.92;;;;;;;;;;5071282;28;20120;-61
2023/07/15 08:35:30;;;;;;;10.55;1.98;;;;;;;;;;5073209;28;20094;-61
2023/07/15 08:37:55;;;;;;;2.30;1.73;;;;;;;;;;5071967;28;20376;-62
2023/07/15 08:40:23;;;;;;;2.80;1.77;;;;;;;;;;5073679;28;20147;-62
2023/07/15 08:42:48;;;;;;;2.72;1.83;;;;;;;;;;5071620;28;20068;-61
2023/07/15 08:45:13;;;;;;;4.63;2.87;;;;;;;;;;5073263;28;20051;-61
2023/07/15 08:47:43;;;;;;;3.00;1.83;;;;;;;;;;5071417;28;20105;-61
2023/07/15 08:50:10;;;;;;;2.17;1.92;;;;;;;;;;5072428;28;20037;-61
2023/07/15 08:52:36;;;;;;;3.80;2.25;;;;;;;;;;5071911;28;20040;-61
2023/07/15 08:55:02;;;;;;;7.00;2.55;;;;;;;;;;5072947;28;20380;-62
2023/07/15 08:57:27;;;;;;;5.22;1.70;;;;;;;;;;5051795;28;20128;-61
2023/07/15 08:59:54;;;;;;;2.45;1.50;;;;;;;;;;5053160;28;20017;-61
2023/07/15 09:02:19;;;;;;;7.45;3.38;;;;;;;;;;5052678;28;20463;-61
2023/07/15 09:04:45;;;;;;;5.80;1.87;;;;;;;;;;5050465;28;20013;-62
2023/07/15 09:07:10;;;;;;;2.88;1.45;;;;;;;;;;5054888;28;20127;-61
2023/07/15 09:09:36;;;;;;;4.80;1.60;;;;;;;;;;5053331;28;20095;-61
2023/07/15 09:12:06;;;;;;;2.60;1.85;;;;;;;;;;5050014;28;20051;-62
2023/07/15 09:14:31;;;;;;;4.75;2.08;;;;;;;;;;5063962;28;20028;-61
2023/07/15 09:16:58;;;;;;;2.37;1.60;;;;;;;;;;5064848;28;20709;-61
2023/07/15 09:19:25;;;;;;;2.90;1.77;;;;;;;;;;5072344;28;20474;-61
2023/07/15 09:22:00;;;;;;;2.35;1.70;;;;;;;;;;5071274;28;20411;-61
2023/07/15 09:24:25;;;;;;;2.45;1.85;;;;;;;;;;5070035;28;20564;-61
2023/07/15 09:26:54;;;;;;;9.93;1.87;;;;;;;;;;5068050;28;20036;-62
2023/07/15 09:29:20;;;;;;;6.05;2.20;;;;;;;;;;5072520;28;20084;-61
2023/07/15 09:31:45;;;;;;;6.88;2.60;;;;;;;;;;5070634;28;20028;-63
2023/07/15 09:34:11;;;;;;;2.80;1.93;;;;;;;;;;5071997;28;20020;-61
2023/07/15 09:36:36;;;;;;;2.87;1.97;;;;;;;;;;5071256;28;20048;-61
2023/07/15 09:39:02;;;;;;;4.35;1.92;;;;;;;;;;5072310;28;20461;-62
2023/07/15 09:41:27;;;;;;;4.30;2.17;;;;;;;;;;5070978;28;20037;-62
2023/07/15 09:43:53;;;;;;;1.90;1.73;;;;;;;;;;5072961;28;20430;-62
2023/07/15 09:46:19;;;;;;;17.70;2.53;;;;;;;;;;5070817;28;20009;-61
2023/07/15 09:48:45;;;;;;;3.55;1.83;;;;;;;;;;5072628;28;20502;-61
2023/07/15 09:51:11;;;;;;;7.38;1.65;;;;;;;;;;5071330;28;20146;-61
2023/07/15 09:53:36;;;;;;;2.63;2.10;;;;;;;;;;5071120;28;20126;-62
2023/07/15 09:56:03;;;;;;;13.45;2.47;;;;;;;;;;5071997;28;20080;-62
2023/07/15 09:58:29;;;;;;;4.47;1.88;;;;;;;;;;5071445;28;20096;-62
2023/07/15 10:01:06;;;;;;;4.13;1.38;;;;;;;;;;5072351;28;20029;-62
2023/07/15 10:03:41;;;;;;;2.20;1.63;;;;;;;;;;5066740;28;20190;-61
2023/07/15 10:06:07;;;;;;;5.60;1.75;;;;;;;;;;5055897;28;20025;-61
2023/07/15 10:08:32;;;;;;;3.05;1.85;;;;;;;;;;5064298;28;20017;-62
2023/07/15 10:10:57;;;;;;;3.83;1.83;;;;;;;;;;5071663;28;20174;-63
2023/07/15 10:13:22;;;;;;;3.53;2.73;;;;;;;;;;5070197;28;20076;-62
2023/07/15 10:15:48;;;;;;;2.57;2.23;;;;;;;;;;5071441;28;20048;-62
2023/07/15 10:18:16;;;;;;;4.78;1.75;;;;;;;;;;5068258;28;20462;-62
2023/07/15 10:20:42;;;;;;;3.35;1.30;;;;;;;;;;5072284;28;20021;-62
2023/07/15 10:23:08;;;;;;;4.00;1.80;;;;;;;;;;5069884;28;20047;-62
2023/07/15 10:25:33;;;;;;;9.63;1.90;;;;;;;;;;5070688;28;20028;-62
2023/07/15 10:28:12;;;;;;;5.13;2.80;;;;;;;;;;5070259;28;20560;-62
2023/07/15 10:30:37;;;;;;;6.07;1.50;;;;;;;;;;5072154;28;20025;-62
2023/07/15 10:33:05;;;;;;;2.58;1.65;;;;;;;;;;5052680;28;20128;-62
2023/07/15 10:35:31;;;;;;;2.42;1.83;;;;;;;;;;5069711;28;20052;-62
2023/07/15 10:38:15;;;;;;;5.22;2.78;;;;;;;;;;5069687;28;20043;-62
2023/07/15 10:40:46;;;;;;;8.52;1.92;;;;;;;;;;5071332;28;20064;-61
2023/07/15 10:43:11;;;;;;;4.72;1.65;;;;;;;;;;5055054;28;20091;-62
2023/07/15 10:45:42;;;;;;;5.82;2.08;;;;;;;;;;5051576;28;20025;-62
2023/07/15 10:48:08;;;;;;;4.32;2.10;;;;;;;;;;5049719;28;20047;-62
2023/07/15 10:50:35;;;;;;;2.25;1.83;;;;;;;;;;5051660;28;20439;-61
2023/07/15 10:53:20;;;;;;;6.53;2.70;;;;;;;;;;5049785;28;20318;-62
2023/07/15 10:55:45;;;;;;;4.97;2.05;;;;;;;;;;5051346;28;20028;-62
2023/07/15 10:58:10;;;;;;;4.70;2.67;;;;;;;;;;5049752;28;20047;-62
2023/07/15 11:00:37;;;;;;;7.77;2.40;;;;;;;;;;5051275;28;20013;-62
2023/07/15 11:03:04;;;;;;;10.77;2.22;;;;;;;;;;5065669;28;20042;-61
2023/07/15 11:05:30;;;;;;;7.05;1.80;;;;;;;;;;5057001;28;20021;-62
2023/07/15 11:07:55;;;;;;;4.50;1.95;;;;;;;;;;5064931;28;20503;-61
2023/07/15 11:10:30;;;;;;;8.68;1.95;;;;;;;;;;5070227;28;20029;-61
2023/07/15 11:12:56;;;;;;;5.40;2.28;;;;;;;;;;5069450;28;20042;-61
2023/07/15 11:15:21;;;;;;;2.80;2.10;;;;;;;;;;5071261;28;20038;-61
2023/07/15 11:17:46;;;;;;;4.80;1.93;;;;;;;;;;5069429;28;20399;-62
2023/07/15 11:20:11;;;;;;;3.13;1.73;;;;;;;;;;5070769;28;20494;-61
2023/07/15 11:22:37;;;;;;;7.47;1.52;;;;;;;;;;5069652;28;20040;-61
2023/07/15 11:25:02;;;;;;;5.27;1.93;;;;;;;;;;5070315;28;20052;-61
2023/07/15 11:27:27;;;;;;;3.38;2.05;;;;;;;;;;5069293;28;20526;-61
2023/07/15 11:29:57;;;;;;;3.13;1.52;;;;;;;;;;5065998;28;20027;-61
2023/07/15 11:32:22;;;;;;;3.22;2.03;;;;;;;;;;5067862;28;20040;-61
2023/07/15 11:34:47;;;;;;;2.85;1.92;;;;;;;;;;5069788;28;20017;-61
2023/07/15 11:37:12;;;;;;;5.35;2.28;;;;;;;;;;5069446;28;20124;-61
2023/07/15 11:39:41;;;;;;;3.43;1.20;;;;;;;;;;5070380;28;20017;-62
2023/07/15 11:42:07;;;;;;;3.30;2.28;;;;;;;;;;5069013;28;20049;-62
2023/07/15 11:44:35;;;;;;;3.97;1.38;;;;;;;;;;5069195;28;20031;-61
2023/07/15 11:47:01;;;;;;;2.67;1.98;;;;;;;;;;5068843;28;20028;-62
2023/07/15 11:49:26;;;;;;;2.07;1.70;;;;;;;;;;5070473;28;20022;-62
2023/07/15 11:51:54;;;;;;;3.10;1.67;;;;;;;;;;5069409;28;20028;-61
2023/07/15 11:54:19;;;;;;;2.25;2.03;;;;;;;;;;5070096;28;20505;-62
2023/07/15 11:56:45;;;;;;;6.57;2.20;;;;;;;;;;5066748;28;20043;-62
2023/07/15 11:59:11;;;;;;;7.00;2.38;;;;;;;;;;5070582;28;20024;-61
2023/07/15 12:01:37;;;;;;;8.85;2.47;;;;;;;;;;5068986;28;20487;-61
2023/07/15 12:04:10;;;;;;;9.57;1.83;;;;;;;;;;5070334;28;20542;-61
2023/07/15 12:06:35;;;;;;;4.93;2.15;;;;;;;;;;5069051;28;20040;-61
2023/07/15 12:09:03;;;;;;;5.53;2.23;;;;;;;;;;5069872;28;20024;-61
2023/07/15 12:11:32;;;;;;;6.10;2.85;;;;;;;;;;5069025;28;20037;-61
2023/07/15 12:13:58;;;;;;;6.45;2.90;;;;;;;;;;5070159;28;20024;-61
2023/07/15 12:16:24;;;;;;;5.65;2.03;;;;;;;;;;5068632;28;20045;-61
2023/07/15 12:18:49;;;;;;;3.35;1.92;;;;;;;;;;5066319;28;20428;-61
2023/07/15 12:21:14;;;;;;;3.17;2.40;;;;;;;;;;5049248;28;20063;-61
2023/07/15 12:23:41;;;;;;;5.23;2.67;;;;;;;;;;5064717;28;20036;-61
2023/07/15 12:26:06;;;;;;;3.28;1.67;;;;;;;;;;5055261;28;20526;-60
2023/07/15 12:28:31;;;;;;;3.92;2.08;;;;;;;;;;5069989;28;20142;-61
2023/07/15 12:30:56;;;;;;;6.30;3.03;;;;;;;;;;5069733;28;20024;-61
2023/07/15 12:33:22;;;;;;;10.00;2.00;;;;;;;;;;5068312;28;20037;-62
2023/07/15 12:35:47;;;;;;;2.83;1.83;;;;;;;;;;5070044;28;20040;-62
2023/07/15 12:38:12;;;;;;;4.87;2.03;;;;;;;;;;5062222;28;20025;-62
2023/07/15 12:40:38;;;;;;;3.50;1.60;;;;;;;;;;5068750;28;20431;-62
2023/07/15 12:43:03;;;;;;;3.13;2.00;;;;;;;;;;5068259;28;20724;-62
2023/07/15 12:45:28;;;;;;;3.03;2.05;;;;;;;;;;5049918;28;20025;-62
2023/07/15 12:47:53;;;;;;;2.03;1.60;;;;;;;;;;5066568;28;20047;-61
2023/07/15 12:50:19;;;;;;;2.90;1.90;;;;;;;;;;5072699;28;20391;-61
2023/07/15 12:52:44;;;;;;;3.63;1.33;;;;;;;;;;5071965;28;20102;-61
2023/07/15 12:55:09;;;;;;;3.97;1.80;;;;;;;;;;5073837;28;20979;-62
2023/07/15 12:57:34;;;;;;;9.93;2.28;;;;;;;;;;5053595;28;20538;-61
2023/07/15 13:00:00;;;;;;;2.42;1.83;;;;;;;;;;5064932;28;20078;-63
2023/07/15 13:02:25;;;;;;;5.00;2.13;;;;;;;;;;5071691;28;20446;-61
2023/07/15 13:04:50;;;;;;;5.50;1.90;;;;;;;;;;5073311;28;20032;-61
2023/07/15 13:07:16;;;;;;;4.33;2.57;;;;;;;;;;5071429;28;20817;-61
2023/07/15 13:09:41;;;;;;;4.10;1.52;;;;;;;;;;5073706;28;20114;-61
2023/07/15 13:12:07;;;;;;;5.53;2.10;;;;;;;;;;5071734;28;20025;-61
2023/07/15 13:14:32;;;;;;;2.55;2.28;;;;;;;;;;5072723;28;20043;-61
2023/07/15 13:16:57;;;;;;;1.88;1.40;;;;;;;;;;5071562;28;20033;-61
2023/07/15 13:19:22;;;;;;;3.97;1.30;;;;;;;;;;5066420;28;20013;-61
2023/07/15 13:21:47;;;;;;;1.98;1.83;;;;;;;;;;5051107;28;20518;-61
2023/07/15 13:24:12;;;;;;;11.13;1.97;;;;;;;;;;5051576;28;20033;-61
2023/07/15 13:26:37;;;;;;;1.38;0.95;;;;;;;;;;5056173;28;20142;-61
2023/07/15 13:29:03;;;;;;;3.88;1.70;;;;;;;;;;5072478;28;20047;-61
2023/07/15 13:31:28;;;;;;;5.37;2.63;;;;;;;;;;5071260;28;20111;-61
2023/07/15 13:33:53;;;;;;;1.35;1.13;;;;;;;;;;5072865;28;20059;-61
2023/07/15 13:36:18;;;;;;;1.80;1.25;;;;;;;;;;5069669;28;20608;-61
2023/07/15 13:38:45;;;;;;;2.50;1.77;;;;;;;;;;5071155;28;20024;-61
2023/07/15 13:41:10;;;;;;;3.33;1.98;;;;;;;;;;5071239;28;20150;-61
2023/07/15 13:43:35;;;;;;;2.88;1.20;;;;;;;;;;5072626;28;20017;-61
2023/07/15 13:46:00;;;;;;;3.45;1.55;;;;;;;;;;5071294;28;20607;-61
2023/07/15 13:48:25;;;;;;;3.70;1.47;;;;;;;;;;5071109;28;20086;-61
2023/07/15 13:50:50;;;;;;;1.77;1.10;;;;;;;;;;5072768;28;20024;-61
2023/07/15 13:53:16;;;;;;;5.87;1.47;;;;;;;;;;5066863;28;20532;-61
2023/07/15 13:55:41;;;;;;;1.80;1.30;;;;;;;;;;5035964;28;20018;-61
2023/07/15 13:58:06;;;;;;;10.37;1.17;;;;;;;;;;5047349;28;20040;-61
2023/07/15 14:00:31;;;;;;;3.70;1.27;;;;;;;;;;5067715;28;20024;-61
2023/07/15 14:02:56;;;;;;;3.70;1.40;;;;;;;;;;5070581;28;20056;-61
2023/07/15 14:05:21;;;;;;;1.45;1.35;;;;;;;;;;5072417;28;20052;-61
2023/07/15 14:07:47;;;;;;;2.22;1.20;;;;;;;;;;5070453;28;20064;-61
2023/07/15 14:10:12;;;;;;;2.85;1.70;;;;;;;;;;5072201;28;20025;-61
2023/07/15 14:12:38;;;;;;;5.13;1.58;;;;;;;;;;5069947;28;20037;-61
2023/07/15 14:15:03;;;;;;;2.77;1.57;;;;;;;;;;5071503;28;20502;-61
2023/07/15 14:17:29;;;;;;;6.63;2.05;;;;;;;;;;5069837;28;20033;-61
2023/07/15 14:19:54;;;;;;;3.67;2.00;;;;;;;;;;5071538;28;20082;-61
2023/07/15 14:22:19;;;;;;;4.32;3.10;;;;;;;;;;5054314;28;20492;-61
2023/07/15 14:24:44;;;;;;;6.60;2.72;;;;;;;;;;5072130;28;20028;-61
2023/07/15 14:27:10;;;;;;;3.97;1.93;;;;;;;;;;5070225;28;20032;-61
2023/07/15 14:29:37;;;;;;;6.70;3.05;;;;;;;;;;5053378;28;20066;-61
2023/07/15 14:32:03;;;;;;;3.42;2.08;;;;;;;;;;5058723;28;20032;-61
2023/07/15 14:34:28;;;;;;;7.97;1.95;;;;;;;;;;5071904;28;20027;-61